createdAt,value
2023-03-19T00:00:44.128Z,17.1
2023-03-19T00:02:00.329Z,17.1
2023-03-19T00:03:16.818Z,17.1
2023-03-19T00:04:32.994Z,17.1
2023-03-19T00:05:48.210Z,17.1
2023-03-19T00:07:04.385Z,17.1
2023-03-19T00:08:20.583Z,17.1
2023-03-19T00:09:36.773Z,17.1
2023-03-19T00:10:52.655Z,17.1
2023-03-19T00:12:08.850Z,17.1
2023-03-19T00:13:25.042Z,17.1
2023-03-19T00:14:40.558Z,17.1
2023-03-19T00:15:55.766Z,17.1
2023-03-19T00:17:10.980Z,17.1
2023-03-19T00:18:25.885Z,17.1
2023-03-19T00:19:42.063Z,17.1
2023-03-19T00:20:58.564Z,17
2023-03-19T00:22:14.444Z,17
2023-03-19T00:23:30.942Z,17.1
2023-03-19T00:24:46.832Z,17
2023-03-19T00:26:03.007Z,17
2023-03-19T00:27:19.196Z,17
2023-03-19T00:28:35.698Z,17
2023-03-19T00:29:51.893Z,17
2023-03-19T00:31:08.077Z,17
2023-03-19T00:32:24.261Z,17
2023-03-19T00:33:40.442Z,17
2023-03-19T00:34:55.356Z,17
2023-03-19T00:36:11.848Z,17
2023-03-19T00:37:28.035Z,17
2023-03-19T00:38:44.230Z,17
2023-03-19T00:40:00.419Z,17
2023-03-19T00:41:16.605Z,17
2023-03-19T00:42:32.793Z,17
2023-03-19T00:43:47.707Z,17
2023-03-19T00:45:03.214Z,17
2023-03-19T00:46:18.430Z,17
2023-03-19T00:47:33.635Z,17
2023-03-19T00:48:49.522Z,17
2023-03-19T00:50:05.701Z,17
2023-03-19T00:51:22.199Z,17
2023-03-19T00:52:38.077Z,17
2023-03-19T00:53:54.581Z,17
2023-03-19T00:55:10.767Z,17
2023-03-19T00:56:26.949Z,17
2023-03-19T00:57:42.845Z,17
2023-03-19T00:58:59.035Z,17
2023-03-19T01:01:31.719Z,17
2023-03-19T01:02:47.599Z,17
2023-03-19T01:04:03.109Z,17
2023-03-19T01:05:18.989Z,17
2023-03-19T01:06:35.495Z,16.9
2023-03-19T01:07:51.677Z,17
2023-03-19T01:09:07.871Z,17
2023-03-19T01:10:24.064Z,17
2023-03-19T01:11:40.236Z,17
2023-03-19T01:12:55.464Z,16.9
2023-03-19T01:14:10.365Z,16.9
2023-03-19T01:15:26.850Z,16.9
2023-03-19T01:16:43.038Z,16.9
2023-03-19T01:17:58.919Z,16.9
2023-03-19T01:19:15.422Z,16.9
2023-03-19T01:20:31.604Z,16.9
2023-03-19T01:21:47.488Z,16.9
2023-03-19T01:23:03.997Z,16.9
2023-03-19T01:24:20.173Z,16.9
2023-03-19T01:25:36.061Z,16.9
2023-03-19T01:26:52.546Z,16.9
2023-03-19T01:28:08.437Z,16.9
2023-03-19T01:29:24.618Z,16.9
2023-03-19T01:30:40.141Z,16.9
2023-03-19T01:31:56.331Z,16.9
2023-03-19T01:33:12.521Z,16.9
2023-03-19T01:34:28.386Z,16.9
2023-03-19T01:35:44.896Z,16.9
2023-03-19T01:37:00.769Z,16.9
2023-03-19T01:38:17.283Z,16.9
2023-03-19T01:39:32.491Z,16.9
2023-03-19T01:40:47.704Z,16.9
2023-03-19T01:42:02.904Z,16.9
2023-03-19T01:43:18.113Z,16.9
2023-03-19T01:44:33.343Z,16.9
2023-03-19T01:45:48.532Z,16.9
2023-03-19T01:47:04.735Z,16.9
2023-03-19T01:48:20.919Z,16.9
2023-03-19T01:49:37.107Z,16.9
2023-03-19T01:50:53.287Z,16.9
2023-03-19T01:52:09.482Z,16.9
2023-03-19T01:53:25.662Z,16.9
2023-03-19T01:54:41.530Z,16.9
2023-03-19T01:55:57.732Z,16.9
2023-03-19T01:57:14.239Z,16.9
2023-03-19T01:58:30.424Z,16.8
2023-03-19T01:59:46.600Z,16.9
2023-03-19T02:01:02.788Z,16.9
2023-03-19T02:02:18.009Z,16.9
2023-03-19T02:03:34.189Z,16.9
2023-03-19T02:04:50.368Z,16.8
2023-03-19T02:06:06.562Z,16.8
2023-03-19T02:07:22.419Z,16.8
2023-03-19T02:08:38.945Z,16.8
2023-03-19T02:09:55.124Z,16.8
2023-03-19T02:11:10.335Z,16.8
2023-03-19T02:12:25.551Z,16.8
2023-03-19T02:13:41.724Z,16.8
2023-03-19T02:14:57.923Z,16.8
2023-03-19T02:16:14.111Z,16.8
2023-03-19T02:17:29.977Z,16.8
2023-03-19T02:18:46.470Z,16.8
2023-03-19T02:20:02.667Z,16.8
2023-03-19T02:21:18.529Z,16.8
2023-03-19T02:22:35.048Z,16.8
2023-03-19T02:23:51.218Z,16.8
2023-03-19T02:25:07.412Z,16.8
2023-03-19T02:26:23.607Z,16.8
2023-03-19T02:27:39.800Z,16.8
2023-03-19T02:28:54.677Z,16.8
2023-03-19T02:30:10.860Z,16.8
2023-03-19T02:31:27.359Z,16.8
2023-03-19T02:32:43.552Z,16.8
2023-03-19T02:33:59.408Z,16.8
2023-03-19T02:35:15.922Z,16.8
2023-03-19T02:36:31.785Z,16.8
2023-03-19T02:37:47.337Z,16.8
2023-03-19T02:39:02.544Z,16.8
2023-03-19T02:40:17.749Z,16.8
2023-03-19T02:41:32.946Z,16.8
2023-03-19T02:42:49.151Z,16.8
2023-03-19T02:44:05.335Z,16.8
2023-03-19T02:45:21.509Z,16.8
2023-03-19T02:46:37.705Z,16.8
2023-03-19T02:47:53.888Z,16.8
2023-03-19T02:49:09.749Z,16.8
2023-03-19T02:50:26.272Z,16.8
2023-03-19T02:51:42.118Z,16.8
2023-03-19T02:52:58.644Z,16.8
2023-03-19T02:54:14.823Z,16.8
2023-03-19T02:55:31.017Z,16.8
2023-03-19T02:56:47.213Z,16.8
2023-03-19T02:58:03.508Z,16.8
2023-03-19T02:59:19.379Z,16.8
2023-03-19T03:00:35.896Z,16.8
2023-03-19T03:01:52.079Z,16.8
2023-03-19T03:03:07.290Z,16.8
2023-03-19T03:04:23.474Z,16.8
2023-03-19T03:05:39.654Z,16.8
2023-03-19T03:06:54.549Z,16.8
2023-03-19T03:08:09.756Z,16.8
2023-03-19T03:09:26.266Z,16.8
2023-03-19T03:10:42.461Z,16.8
2023-03-19T03:11:58.300Z,16.8
2023-03-19T03:13:14.498Z,16.8
2023-03-19T03:14:31.011Z,16.8
2023-03-19T03:15:47.207Z,16.8
2023-03-19T03:17:03.385Z,16.8
2023-03-19T03:18:19.572Z,16.8
2023-03-19T03:19:35.439Z,16.8
2023-03-19T03:20:51.617Z,16.8
2023-03-19T03:22:08.149Z,16.8
2023-03-19T03:23:23.983Z,16.8
2023-03-19T03:24:39.529Z,16.8
2023-03-19T03:25:55.728Z,16.8
2023-03-19T03:27:11.910Z,16.8
2023-03-19T03:28:28.089Z,16.8
2023-03-19T03:29:43.937Z,16.8
2023-03-19T03:31:00.464Z,16.8
2023-03-19T03:32:16.646Z,16.8
2023-03-19T03:33:31.538Z,16.8
2023-03-19T03:34:46.731Z,16.7
2023-03-19T03:36:02.282Z,16.8
2023-03-19T03:37:17.158Z,16.8
2023-03-19T03:38:32.705Z,16.8
2023-03-19T03:39:47.571Z,16.8
2023-03-19T03:41:04.102Z,16.8
2023-03-19T03:42:20.288Z,16.8
2023-03-19T03:43:36.473Z,16.8
2023-03-19T03:44:52.319Z,16.8
2023-03-19T03:46:08.500Z,16.8
2023-03-19T03:47:24.683Z,16.8
2023-03-19T03:48:41.211Z,16.8
2023-03-19T03:49:57.408Z,16.7
2023-03-19T03:51:13.594Z,16.8
2023-03-19T03:52:29.436Z,16.8
2023-03-19T03:53:45.963Z,16.7
2023-03-19T03:55:02.157Z,16.8
2023-03-19T03:56:17.356Z,16.8
2023-03-19T03:57:33.538Z,16.7
2023-03-19T03:58:49.393Z,16.8
2023-03-19T04:00:05.579Z,16.7
2023-03-19T04:01:22.108Z,16.8
2023-03-19T04:02:37.960Z,16.8
2023-03-19T04:03:54.475Z,16.7
2023-03-19T04:05:09.688Z,16.7
2023-03-19T04:06:24.896Z,16.7
2023-03-19T04:07:39.778Z,16.8
2023-03-19T04:08:55.324Z,16.7
2023-03-19T04:10:10.525Z,16.7
2023-03-19T04:11:25.398Z,16.7
2023-03-19T04:12:41.927Z,16.7
2023-03-19T04:13:58.099Z,16.7
2023-03-19T04:15:13.954Z,16.7
2023-03-19T04:16:30.478Z,16.7
2023-03-19T04:17:46.666Z,16.7
2023-03-19T04:19:02.860Z,16.7
2023-03-19T04:20:19.056Z,16.7
2023-03-19T04:21:35.233Z,16.7
2023-03-19T04:22:51.083Z,16.7
2023-03-19T04:24:07.260Z,16.7
2023-03-19T04:25:23.791Z,16.7
2023-03-19T04:26:39.991Z,16.8
2023-03-19T04:27:55.185Z,16.8
2023-03-19T04:29:11.375Z,16.8
2023-03-19T04:30:27.558Z,16.8
2023-03-19T04:31:43.744Z,16.8
2023-03-19T04:32:59.582Z,16.8
2023-03-19T04:34:16.127Z,16.8
2023-03-19T04:35:32.303Z,16.7
2023-03-19T04:36:47.175Z,16.8
2023-03-19T04:38:02.368Z,16.7
2023-03-19T04:39:18.915Z,16.7
2023-03-19T04:40:35.096Z,16.7
2023-03-19T04:41:51.294Z,16.7
2023-03-19T04:43:07.484Z,16.7
2023-03-19T04:44:23.664Z,16.7
2023-03-19T04:45:39.499Z,16.7
2023-03-19T04:46:56.031Z,16.7
2023-03-19T04:48:11.880Z,16.7
2023-03-19T04:49:28.069Z,16.7
2023-03-19T04:50:44.249Z,16.7
2023-03-19T04:52:00.428Z,16.7
2023-03-19T04:53:16.971Z,16.7
2023-03-19T04:54:32.175Z,16.7
2023-03-19T04:55:48.369Z,16.7
2023-03-19T04:57:04.549Z,16.7
2023-03-19T04:58:20.733Z,16.7
2023-03-19T04:59:36.931Z,16.7
2023-03-19T05:00:52.766Z,16.8
2023-03-19T05:02:08.942Z,16.8
2023-03-19T05:03:24.165Z,16.8
2023-03-19T05:04:39.732Z,16.8
2023-03-19T05:05:54.928Z,16.8
2023-03-19T05:07:10.135Z,16.8
2023-03-19T05:08:25.359Z,16.9
2023-03-19T05:09:40.564Z,16.9
2023-03-19T05:10:56.753Z,16.9
2023-03-19T05:12:12.922Z,16.9
2023-03-19T05:13:29.116Z,16.9
2023-03-19T05:14:45.314Z,16.9
2023-03-19T05:16:01.485Z,16.8
2023-03-19T05:17:17.677Z,16.8
2023-03-19T05:18:33.860Z,16.8
2023-03-19T05:19:50.054Z,16.8
2023-03-19T05:21:06.250Z,16.8
2023-03-19T05:22:22.437Z,16.8
2023-03-19T05:23:38.268Z,16.8
2023-03-19T05:24:54.809Z,16.8
2023-03-19T05:26:09.646Z,16.8
2023-03-19T05:27:26.188Z,16.8
2023-03-19T05:28:42.386Z,16.8
2023-03-19T05:29:58.564Z,16.8
2023-03-19T05:31:14.757Z,16.8
2023-03-19T05:32:30.950Z,16.8
2023-03-19T05:33:47.126Z,16.8
2023-03-19T05:35:01.977Z,16.8
2023-03-19T05:36:17.563Z,16.8
2023-03-19T05:37:33.382Z,16.8
2023-03-19T05:38:49.561Z,16.8
2023-03-19T05:40:05.753Z,16.8
2023-03-19T05:41:22.301Z,16.8
2023-03-19T05:42:38.499Z,16.8
2023-03-19T05:43:54.683Z,16.8
2023-03-19T05:45:10.859Z,16.8
2023-03-19T05:46:26.696Z,16.8
2023-03-19T05:47:43.250Z,16.8
2023-03-19T05:48:59.425Z,16.8
2023-03-19T05:50:15.242Z,16.8
2023-03-19T05:51:31.798Z,16.8
2023-03-19T05:52:46.628Z,16.8
2023-03-19T05:54:02.829Z,16.8
2023-03-19T05:55:19.388Z,16.8
2023-03-19T05:56:35.570Z,16.8
2023-03-19T05:57:51.763Z,16.8
2023-03-19T05:59:07.933Z,16.8
2023-03-19T06:00:24.119Z,16.8
2023-03-19T06:01:38.982Z,16.9
2023-03-19T06:02:54.537Z,16.9
2023-03-19T06:04:10.354Z,16.8
2023-03-19T06:05:26.545Z,16.9
2023-03-19T06:06:43.114Z,16.9
2023-03-19T06:07:59.305Z,16.9
2023-03-19T06:09:15.111Z,16.9
2023-03-19T06:10:31.663Z,16.9
2023-03-19T06:11:47.860Z,16.9
2023-03-19T06:13:04.053Z,16.9
2023-03-19T06:14:20.224Z,16.9
2023-03-19T06:15:36.424Z,16.9
2023-03-19T06:16:52.612Z,16.9
2023-03-19T06:18:08.800Z,16.9
2023-03-19T06:19:23.989Z,16.9
2023-03-19T06:20:40.186Z,16.9
2023-03-19T06:21:56.000Z,16.9
2023-03-19T06:23:12.556Z,16.9
2023-03-19T06:24:28.758Z,16.9
2023-03-19T06:25:44.933Z,16.9
2023-03-19T06:27:00.749Z,16.9
2023-03-19T06:28:16.335Z,16.9
2023-03-19T06:29:31.156Z,16.9
2023-03-19T06:30:47.349Z,17
2023-03-19T06:32:03.533Z,17
2023-03-19T06:33:20.099Z,17
2023-03-19T06:34:36.291Z,17
2023-03-19T06:35:52.488Z,17
2023-03-19T06:37:08.664Z,17
2023-03-19T06:38:24.854Z,17
2023-03-19T06:39:41.048Z,17
2023-03-19T06:40:56.853Z,17
2023-03-19T06:42:13.043Z,17
2023-03-19T06:43:29.233Z,17
2023-03-19T06:44:45.789Z,17
2023-03-19T06:46:01.000Z,17
2023-03-19T06:47:16.793Z,17
2023-03-19T06:48:33.363Z,17
2023-03-19T06:49:49.167Z,17
2023-03-19T06:51:05.741Z,17
2023-03-19T06:52:21.557Z,17
2023-03-19T06:53:37.743Z,17
2023-03-19T06:54:52.960Z,17
2023-03-19T06:56:08.146Z,17
2023-03-19T06:57:23.536Z,17
2023-03-19T06:58:38.734Z,17
2023-03-19T06:59:53.792Z,17
2023-03-19T07:01:09.152Z,17
2023-03-19T07:02:24.211Z,17
2023-03-19T07:03:39.561Z,17
2023-03-19T07:04:55.762Z,17
2023-03-19T07:06:11.942Z,17
2023-03-19T07:07:27.963Z,17
2023-03-19T07:08:44.145Z,17
2023-03-19T07:10:00.348Z,17
2023-03-19T07:11:16.699Z,17
2023-03-19T07:12:32.882Z,17
2023-03-19T07:13:49.070Z,17
2023-03-19T07:15:05.248Z,17
2023-03-19T07:16:21.445Z,17
2023-03-19T07:17:36.493Z,17
2023-03-19T07:18:52.844Z,17
2023-03-19T07:20:09.036Z,17
2023-03-19T07:21:25.225Z,17
2023-03-19T07:22:41.410Z,17
2023-03-19T07:23:57.591Z,16.9
2023-03-19T07:25:13.772Z,17
2023-03-19T07:26:29.972Z,17
2023-03-19T07:27:46.153Z,17
2023-03-19T07:29:01.369Z,16.9
2023-03-19T07:30:16.396Z,17
2023-03-19T07:31:32.756Z,17
2023-03-19T07:32:48.764Z,17
2023-03-19T07:34:05.144Z,17
2023-03-19T07:35:21.331Z,17
2023-03-19T07:36:37.514Z,17.1
2023-03-19T07:37:53.700Z,17.1
2023-03-19T07:39:09.891Z,17.1
2023-03-19T07:40:25.893Z,17.1
2023-03-19T07:41:42.257Z,17.2
2023-03-19T07:42:58.436Z,17.2
2023-03-19T07:44:14.639Z,17.2
2023-03-19T07:45:30.815Z,17.2
2023-03-19T07:46:45.840Z,17.2
2023-03-19T07:48:02.025Z,17.2
2023-03-19T07:49:18.391Z,17.2
2023-03-19T07:50:34.589Z,17.3
2023-03-19T07:51:50.778Z,17.3
2023-03-19T07:53:06.953Z,17.3
2023-03-19T07:54:23.148Z,17.3
2023-03-19T07:55:38.186Z,17.3
2023-03-19T07:56:53.573Z,17.3
2023-03-19T07:58:08.783Z,17.4
2023-03-19T07:59:23.796Z,17.4
2023-03-19T08:00:39.013Z,17.4
2023-03-19T08:01:54.401Z,17.4
2023-03-19T08:03:10.410Z,17.4
2023-03-19T08:04:26.776Z,17.5
2023-03-19T08:05:42.952Z,17.5
2023-03-19T08:06:59.148Z,17.5
2023-03-19T08:08:15.338Z,17.5
2023-03-19T08:09:31.518Z,17.5
2023-03-19T08:10:47.715Z,17.5
2023-03-19T08:12:03.894Z,17.5
2023-03-19T08:13:19.906Z,17.6
2023-03-19T08:14:36.270Z,17.6
2023-03-19T08:15:52.451Z,17.6
2023-03-19T08:17:08.657Z,17.6
2023-03-19T08:18:23.664Z,17.6
2023-03-19T08:19:40.045Z,17.6
2023-03-19T08:20:56.240Z,17.6
2023-03-19T08:22:12.412Z,17.7
2023-03-19T08:23:28.602Z,17.7
2023-03-19T08:24:44.611Z,17.6
2023-03-19T08:26:00.788Z,17.6
2023-03-19T08:27:16.188Z,17.6
2023-03-19T08:28:31.391Z,17.6
2023-03-19T08:29:47.579Z,17.5
2023-03-19T08:31:02.787Z,17.5
2023-03-19T08:32:18.005Z,17.4
2023-03-19T08:33:34.176Z,17.4
2023-03-19T08:34:50.371Z,17.4
2023-03-19T08:36:06.563Z,17.4
2023-03-19T08:37:22.751Z,17.4
2023-03-19T08:38:38.926Z,17.4
2023-03-19T08:39:55.118Z,17.4
2023-03-19T08:41:11.131Z,17.4
2023-03-19T08:42:27.493Z,17.3
2023-03-19T08:43:43.676Z,17.3
2023-03-19T08:44:59.876Z,17.3
2023-03-19T08:46:16.054Z,17.3
2023-03-19T08:47:32.248Z,17.3
2023-03-19T08:48:47.259Z,17.3
2023-03-19T08:50:03.456Z,17.3
2023-03-19T08:51:19.827Z,17.3
2023-03-19T08:52:36.011Z,17.3
2023-03-19T08:53:52.189Z,17.3
2023-03-19T08:55:08.389Z,17.3
2023-03-19T08:56:24.379Z,17.3
2023-03-19T08:57:39.792Z,17.2
2023-03-19T08:58:54.795Z,17.2
2023-03-19T09:00:10.194Z,17.2
2023-03-19T09:01:25.406Z,17.2
2023-03-19T09:02:41.593Z,17.2
2023-03-19T09:05:13.970Z,17.2
2023-03-19T09:06:30.165Z,17.2
2023-03-19T09:07:46.155Z,17.2
2023-03-19T09:09:02.336Z,17.2
2023-03-19T09:10:18.712Z,17.1
2023-03-19T09:11:34.897Z,17.1
2023-03-19T09:12:51.101Z,17.2
2023-03-19T09:14:07.092Z,17.1
2023-03-19T09:15:23.470Z,17.1
2023-03-19T09:16:39.662Z,17.1
2023-03-19T09:17:54.854Z,17.1
2023-03-19T09:19:11.053Z,17.1
2023-03-19T09:20:27.230Z,17.2
2023-03-19T09:21:43.419Z,17.1
2023-03-19T09:22:59.422Z,17.2
2023-03-19T09:24:15.801Z,17.2
2023-03-19T09:25:31.981Z,17.2
2023-03-19T09:26:47.974Z,17.2
2023-03-19T09:28:03.184Z,17.2
2023-03-19T09:29:18.404Z,17.2
2023-03-19T09:30:33.811Z,17.2
2023-03-19T09:31:48.997Z,17.2
2023-03-19T09:33:05.201Z,17.2
2023-03-19T09:34:21.189Z,17.2
2023-03-19T09:35:37.575Z,17.2
2023-03-19T09:36:53.754Z,17.2
2023-03-19T09:38:09.943Z,17.2
2023-03-19T09:39:26.132Z,17.2
2023-03-19T09:41:58.307Z,17.2
2023-03-19T09:43:14.689Z,17.2
2023-03-19T09:44:30.884Z,17.2
2023-03-19T09:45:46.872Z,17.2
2023-03-19T09:47:03.055Z,17.2
2023-03-19T09:48:18.465Z,17.2
2023-03-19T09:49:34.446Z,17.2
2023-03-19T09:50:50.840Z,17.2
2023-03-19T09:52:06.826Z,17.2
2023-03-19T09:53:23.005Z,17.2
2023-03-19T09:54:39.391Z,17.2
2023-03-19T09:55:55.572Z,17.2
2023-03-19T09:57:11.760Z,17.2
2023-03-19T09:58:26.990Z,17.2
2023-03-19T09:59:42.189Z,17.2
2023-03-19T10:00:58.377Z,17.2
2023-03-19T10:02:14.356Z,17.2
2023-03-19T10:03:30.740Z,17.3
2023-03-19T10:04:46.939Z,17.3
2023-03-19T10:06:02.933Z,17.3
2023-03-19T10:07:19.304Z,17.3
2023-03-19T10:08:35.497Z,17.3
2023-03-19T10:09:51.474Z,17.3
2023-03-19T10:11:07.679Z,17.3
2023-03-19T10:12:23.866Z,17.3
2023-03-19T10:13:40.259Z,17.3
2023-03-19T10:14:56.236Z,17.3
2023-03-19T10:16:11.431Z,17.3
2023-03-19T10:17:27.620Z,17.3
2023-03-19T10:18:43.798Z,17.3
2023-03-19T10:20:00.006Z,17.3
2023-03-19T10:21:16.398Z,17.3
2023-03-19T10:22:32.580Z,17.3
2023-03-19T10:23:48.754Z,17.4
2023-03-19T10:25:03.771Z,17.4
2023-03-19T10:26:18.980Z,17.4
2023-03-19T10:27:35.163Z,17.3
2023-03-19T10:28:51.347Z,17.3
2023-03-19T10:30:07.739Z,17.3
2023-03-19T10:31:23.932Z,17.4
2023-03-19T10:32:40.125Z,17.4
2023-03-19T10:33:56.297Z,17.4
2023-03-19T10:35:12.278Z,17.4
2023-03-19T10:36:28.687Z,17.4
2023-03-19T10:37:44.865Z,17.4
2023-03-19T10:39:01.057Z,17.4
2023-03-19T10:40:17.041Z,17.4
2023-03-19T10:41:33.422Z,17.4
2023-03-19T10:42:48.639Z,17.5
2023-03-19T10:44:04.829Z,17.5
2023-03-19T10:45:21.003Z,17.5
2023-03-19T10:46:37.191Z,17.5
2023-03-19T10:47:53.374Z,17.6
2023-03-19T10:49:09.561Z,17.6
2023-03-19T10:50:25.551Z,17.7
2023-03-19T10:51:40.967Z,17.7
2023-03-19T10:52:57.157Z,17.7
2023-03-19T10:54:12.155Z,17.8
2023-03-19T10:55:27.577Z,17.8
2023-03-19T10:56:42.797Z,17.8
2023-03-19T10:57:59.098Z,17.9
2023-03-19T10:59:15.292Z,17.9
2023-03-19T11:00:31.479Z,18
2023-03-19T11:01:47.659Z,18
2023-03-19T11:03:03.841Z,18.1
2023-03-19T11:04:20.044Z,18
2023-03-19T11:05:36.226Z,18.1
2023-03-19T11:06:52.403Z,18
2023-03-19T11:08:08.599Z,18
2023-03-19T11:09:24.575Z,18
2023-03-19T11:10:40.757Z,18.1
2023-03-19T11:11:56.936Z,18.1
2023-03-19T11:13:13.138Z,18.1
2023-03-19T11:14:28.559Z,18.1
2023-03-19T11:15:44.518Z,18.1
2023-03-19T11:17:00.927Z,18.2
2023-03-19T11:18:17.103Z,18.2
2023-03-19T11:19:33.307Z,18.2
2023-03-19T11:20:49.278Z,18.4
2023-03-19T11:22:05.682Z,18.4
2023-03-19T11:23:20.893Z,18.5
2023-03-19T11:24:36.097Z,18.5
2023-03-19T11:25:52.283Z,18.4
2023-03-19T11:27:08.460Z,18.4
2023-03-19T11:28:24.653Z,18.3
2023-03-19T11:29:40.836Z,18.3
2023-03-19T11:30:56.807Z,18.3
2023-03-19T11:32:12.237Z,18.3
2023-03-19T11:33:28.426Z,18.2
2023-03-19T11:34:44.402Z,18.2
2023-03-19T11:36:00.809Z,18.2
2023-03-19T11:37:16.988Z,18.2
2023-03-19T11:38:33.190Z,18.1
2023-03-19T11:39:49.372Z,18.1
2023-03-19T11:41:05.333Z,18.1
2023-03-19T11:42:21.759Z,18.2
2023-03-19T11:43:37.723Z,18.2
2023-03-19T11:44:53.895Z,18.2
2023-03-19T11:46:10.323Z,18.3
2023-03-19T11:47:26.282Z,18.3
2023-03-19T11:48:41.000Z,18.3
2023-03-19T11:49:56.919Z,18.4
2023-03-19T11:51:11.915Z,18.4
2023-03-19T11:52:28.316Z,18.4
2023-03-19T11:53:44.512Z,18.4
2023-03-19T11:55:00.704Z,18.5
2023-03-19T11:56:16.898Z,18.5
2023-03-19T11:57:33.078Z,18.5
2023-03-19T11:58:49.273Z,18.5
2023-03-19T12:00:05.444Z,18.5
2023-03-19T12:01:21.640Z,18.6
2023-03-19T12:02:37.825Z,18.6
2023-03-19T12:03:54.018Z,18.6
2023-03-19T12:05:10.209Z,18.6
2023-03-19T12:06:26.391Z,18.6
2023-03-19T12:07:41.608Z,18.5
2023-03-19T12:08:57.792Z,18.5
2023-03-19T12:10:13.753Z,18.4
2023-03-19T12:11:30.177Z,18.4
2023-03-19T12:12:46.126Z,18.3
2023-03-19T12:14:02.312Z,18.3
2023-03-19T12:15:18.736Z,18.3
2023-03-19T12:16:33.719Z,18.3
2023-03-19T12:17:49.148Z,18.3
2023-03-19T12:19:04.133Z,18.2
2023-03-19T12:20:19.574Z,18.3
2023-03-19T12:21:35.771Z,18.2
2023-03-19T12:22:51.955Z,18.2
2023-03-19T12:24:08.139Z,18.2
2023-03-19T12:25:24.339Z,18.2
2023-03-19T12:26:40.523Z,18.2
2023-03-19T12:27:56.704Z,18.2
2023-03-19T12:29:12.668Z,18.2
2023-03-19T12:30:29.082Z,18.2
2023-03-19T12:31:45.279Z,18.2
2023-03-19T12:33:01.223Z,18.2
2023-03-19T12:34:17.658Z,18.2
2023-03-19T12:35:33.841Z,18.2
2023-03-19T12:36:49.055Z,18.2
2023-03-19T12:38:05.006Z,18.2
2023-03-19T12:39:21.423Z,18.2
2023-03-19T12:40:37.613Z,18.2
2023-03-19T12:41:53.573Z,18.2
2023-03-19T12:43:09.998Z,18.2
2023-03-19T12:44:26.183Z,18.3
2023-03-19T12:45:41.390Z,18.2
2023-03-19T12:46:56.607Z,18.3
2023-03-19T12:48:11.574Z,18.3
2023-03-19T12:49:27.014Z,18.4
2023-03-19T12:50:43.212Z,18.4
2023-03-19T12:51:58.179Z,18.5
2023-03-19T12:53:13.395Z,18.5
2023-03-19T12:54:29.577Z,18.6
2023-03-19T12:55:46.000Z,18.6
2023-03-19T12:57:01.949Z,18.7
2023-03-19T12:58:18.388Z,18.8
2023-03-19T12:59:34.575Z,18.9
2023-03-19T13:00:50.518Z,18.9
2023-03-19T13:02:06.960Z,19.1
2023-03-19T13:03:22.904Z,19.3
2023-03-19T13:04:39.318Z,19.4
2023-03-19T13:05:55.512Z,19.5
2023-03-19T13:07:11.467Z,19.6
2023-03-19T13:08:27.898Z,19.7
2023-03-19T13:09:43.094Z,19.7
2023-03-19T13:10:59.282Z,19.7
2023-03-19T13:12:15.237Z,19.6
2023-03-19T13:13:31.672Z,19.6
2023-03-19T13:14:47.851Z,19.6
2023-03-19T13:16:03.793Z,19.7
2023-03-19T13:17:20.244Z,19.8
2023-03-19T13:18:35.205Z,19.8
2023-03-19T13:19:50.658Z,19.8
2023-03-19T13:21:05.872Z,19.8
2023-03-19T13:22:20.830Z,19.8
2023-03-19T13:23:36.291Z,19.8
2023-03-19T13:24:51.489Z,19.8
2023-03-19T13:26:07.000Z,19.8
2023-03-19T13:27:23.637Z,19.7
2023-03-19T13:28:39.818Z,19.7
2023-03-19T13:29:56.388Z,19.7
2023-03-19T13:31:12.643Z,19.7
2023-03-19T13:32:28.888Z,19.6
2023-03-19T13:33:45.113Z,19.6
2023-03-19T13:35:01.325Z,19.5
2023-03-19T13:36:16.940Z,19.5
2023-03-19T13:37:33.141Z,19.5
2023-03-19T13:38:49.947Z,19.4
2023-03-19T13:40:06.151Z,19.4
2023-03-19T13:41:20.712Z,19.4
2023-03-19T13:42:36.911Z,19.3
2023-03-19T13:43:53.765Z,19.3
2023-03-19T13:45:09.293Z,19.3
2023-03-19T13:46:26.172Z,19.2
2023-03-19T13:47:42.354Z,19.2
2023-03-19T13:48:58.557Z,19.2
2023-03-19T13:50:13.777Z,19.2
2023-03-19T13:51:28.972Z,19.2
2023-03-19T13:52:44.467Z,19.2
2023-03-19T13:54:01.353Z,19.1
2023-03-19T13:55:17.539Z,19.1
2023-03-19T13:56:33.736Z,19.1
2023-03-19T13:57:49.933Z,19.1
2023-03-19T13:59:06.111Z,19.2
2023-03-19T14:00:21.607Z,19.1
2023-03-19T14:01:37.791Z,19.2
2023-03-19T14:02:54.684Z,19.1
2023-03-19T14:04:10.873Z,19.1
2023-03-19T14:05:27.067Z,19.1
2023-03-19T14:06:43.244Z,19.1
2023-03-19T14:07:58.461Z,19.1
2023-03-19T14:09:14.651Z,19.1
2023-03-19T14:10:30.122Z,19.1
2023-03-19T14:11:46.313Z,19.1
2023-03-19T14:13:03.213Z,19.1
2023-03-19T14:14:19.392Z,19.1
2023-03-19T14:15:34.870Z,19.1
2023-03-19T14:16:50.812Z,19.1
2023-03-19T14:18:06.007Z,19.1
2023-03-19T14:19:20.514Z,19.1
2023-03-19T14:20:35.717Z,19
2023-03-19T14:21:51.915Z,19
2023-03-19T14:23:08.107Z,19
2023-03-19T14:24:24.999Z,19
2023-03-19T14:25:41.187Z,19
2023-03-19T14:26:56.667Z,19
2023-03-19T14:28:13.557Z,19
2023-03-19T14:29:29.753Z,19
2023-03-19T14:30:45.945Z,19
2023-03-19T14:32:02.128Z,19
2023-03-19T14:33:18.328Z,19
2023-03-19T14:34:34.519Z,19
2023-03-19T14:35:50.704Z,19
2023-03-19T14:37:05.898Z,19
2023-03-19T14:38:22.100Z,19
2023-03-19T14:39:38.275Z,19
2023-03-19T14:40:54.469Z,19
2023-03-19T14:42:09.943Z,19
2023-03-19T14:43:26.858Z,19
2023-03-19T14:44:43.034Z,19
2023-03-19T14:45:57.528Z,19
2023-03-19T14:47:12.744Z,19
2023-03-19T14:48:28.673Z,19
2023-03-19T14:49:43.872Z,19
2023-03-19T14:50:59.615Z,19
2023-03-19T14:52:16.258Z,19
2023-03-19T14:53:31.975Z,19
2023-03-19T14:54:48.642Z,19
2023-03-19T14:56:04.831Z,19
2023-03-19T14:57:20.553Z,19
2023-03-19T14:58:37.200Z,19
2023-03-19T14:59:53.388Z,19
2023-03-19T15:01:09.589Z,18.9
2023-03-19T15:02:25.777Z,18.9
2023-03-19T15:03:41.955Z,18.9
2023-03-19T15:04:57.689Z,18.9
2023-03-19T15:06:13.346Z,18.9
2023-03-19T15:07:29.078Z,18.9
2023-03-19T15:08:45.254Z,18.9
2023-03-19T15:10:01.440Z,18.9
2023-03-19T15:11:18.119Z,18.8
2023-03-19T15:12:34.299Z,18.8
2023-03-19T15:13:50.022Z,18.8
2023-03-19T15:15:05.227Z,18.8
2023-03-19T15:16:20.446Z,18.8
2023-03-19T15:17:36.636Z,18.8
2023-03-19T15:18:52.823Z,18.8
2023-03-19T15:20:09.002Z,18.8
2023-03-19T15:21:25.202Z,18.8
2023-03-19T15:22:41.847Z,18.8
2023-03-19T15:23:58.055Z,18.7
2023-03-19T15:25:13.766Z,18.7
2023-03-19T15:26:30.433Z,18.7
2023-03-19T15:27:46.613Z,18.7
2023-03-19T15:29:02.809Z,18.7
2023-03-19T15:30:18.519Z,18.7
2023-03-19T15:31:34.700Z,18.7
2023-03-19T15:32:50.382Z,18.7
2023-03-19T15:34:06.576Z,18.6
2023-03-19T15:35:22.284Z,18.6
2023-03-19T15:36:38.959Z,18.6
2023-03-19T15:37:55.136Z,18.6
2023-03-19T15:39:10.847Z,18.6
2023-03-19T15:40:27.529Z,18.6
2023-03-19T15:41:42.731Z,18.6
2023-03-19T15:42:57.454Z,18.6
2023-03-19T15:44:13.160Z,18.6
2023-03-19T15:45:28.356Z,18.6
2023-03-19T15:46:43.115Z,18.6
2023-03-19T15:47:58.317Z,18.6
2023-03-19T15:49:14.981Z,18.6
2023-03-19T15:50:29.714Z,18.6
2023-03-19T15:51:45.403Z,18.6
2023-03-19T15:53:01.583Z,18.6
2023-03-19T15:54:17.297Z,18.6
2023-03-19T15:55:33.964Z,18.6
2023-03-19T15:56:50.154Z,18.6
2023-03-19T15:58:06.341Z,18.6
2023-03-19T15:59:22.532Z,18.6
2023-03-19T16:00:38.721Z,18.5
2023-03-19T16:01:54.906Z,18.5
2023-03-19T16:03:11.114Z,18.5
2023-03-19T16:04:27.289Z,18.5
2023-03-19T16:05:43.475Z,18.5
2023-03-19T16:06:59.198Z,18.5
2023-03-19T16:08:14.402Z,18.5
2023-03-19T16:09:31.062Z,18.5
2023-03-19T16:10:47.250Z,18.4
2023-03-19T16:12:03.436Z,18.4
2023-03-19T16:13:19.145Z,18.4
2023-03-19T16:14:35.826Z,18.4
2023-03-19T16:15:52.016Z,18.4
2023-03-19T16:17:06.738Z,18.4
2023-03-19T16:18:21.953Z,18.4
2023-03-19T16:19:38.137Z,18.4
2023-03-19T16:20:54.807Z,18.4
2023-03-19T16:22:11.001Z,18.4
2023-03-19T16:23:26.711Z,18.4
2023-03-19T16:24:43.376Z,18.4
2023-03-19T16:25:59.083Z,18.4
2023-03-19T16:27:15.280Z,18.4
2023-03-19T16:28:31.947Z,18.4
2023-03-19T16:29:48.143Z,18.4
2023-03-19T16:31:04.328Z,18.3
2023-03-19T16:32:20.517Z,18.3
2023-03-19T16:33:36.692Z,18.3
2023-03-19T16:34:51.900Z,18.3
2023-03-19T16:36:07.610Z,18.3
2023-03-19T16:37:23.789Z,18.3
2023-03-19T16:38:39.986Z,18.3
2023-03-19T16:39:56.658Z,18.3
2023-03-19T16:41:12.851Z,18.3
2023-03-19T16:42:28.551Z,18.3
2023-03-19T16:43:44.265Z,18.3
2023-03-19T16:44:58.976Z,18.3
2023-03-19T16:46:14.185Z,18.2
2023-03-19T16:47:29.886Z,18.2
2023-03-19T16:48:45.101Z,18.2
2023-03-19T16:50:00.302Z,18.2
2023-03-19T16:51:15.993Z,18.2
2023-03-19T16:52:32.687Z,18.2
2023-03-19T16:53:48.373Z,18.2
2023-03-19T16:55:05.065Z,18.2
2023-03-19T16:56:21.252Z,18.2
2023-03-19T16:57:37.437Z,18.2
2023-03-19T16:58:53.145Z,18.2
2023-03-19T17:00:09.823Z,18.1
2023-03-19T17:01:26.015Z,18.1
2023-03-19T17:02:42.197Z,18.1
2023-03-19T17:03:57.893Z,18.1
2023-03-19T17:05:14.568Z,18.1